Terminal Aerodrome Forecast
Issued by NWS

Home | Current Version | Previous Version | Text Only | Print | Product List | Glossary On
Versions: 1 2 3 4 5 6 7 8 9 10 11 12 13 14 15 16
000
FTUS46 KPDT 020300 AAA
TAFDLS
TAF AMD
KDLS 020342Z 0204/0224 30012KT P6SM FEW250
     FM021000 29005KT P6SM FEW120
     FM021900 32008KT P6SM SCT250=

USA.gov is the U.S. government's official web portal to all federal, state and local government web resources and services.